GEC221 EDDH-LGAV
Flight info
| Callsign | GEC221 |
|---|---|
| Flight time | N/A |
| Altitude | 39000 |
| Route | AMLUH2G/33 AMLUH M852 DENIX DCT ZUCKA DCT SODRO DCT RUDNO DCT LAMSI DCT LIMRA DCT MOSAV DCT LURID DCT PODOB DCT MEDUX UM867 KOGAT DCT TALAS DCT SIGFO UM749 ROPOX ROPOX1W |
| Aircraft | A333/H-SDE3GHIJ2J3J5M1RVWXY/LB2D1 |
Departure
| Time | 2026-04-21 07:27 |
|---|---|
| Airport | Hamburg Helmut Schmidt Airport (EDDH) |
Arrival
| Time | N/A |
|---|---|
| Airport | Athens Eleftherios Venizelos International Airport (LGAV) |
| Time | Latitude | Longitude | Altitude | Speed | Heading |
|---|---|---|---|---|---|
| 2026-04-21 07:14 | 53.62764 | 10.00250 | 55 ft | 0 kts | 62° |
| 2026-04-21 07:21 | 53.62762 | 10.00244 | 55 ft | 0 kts | 62° |
| 2026-04-21 07:21 | 53.62752 | 10.00222 | 47 ft | 3 kts | 25° |
| 2026-04-21 07:21 | 53.62736 | 10.00208 | 47 ft | 3 kts | 14° |
| 2026-04-21 07:22 | 53.62719 | 10.00206 | 47 ft | 0 kts | 332° |
| 2026-04-21 07:23 | 53.62720 | 10.00205 | 55 ft | 1 kts | 332° |
| 2026-04-21 07:23 | 53.62730 | 10.00197 | 48 ft | 2 kts | 332° |
| 2026-04-21 07:24 | 53.62751 | 10.00174 | 48 ft | 5 kts | 326° |
| 2026-04-21 07:24 | 53.62784 | 10.00137 | 49 ft | 6 kts | 328° |
| 2026-04-21 07:24 | 53.62820 | 10.00089 | 47 ft | 7 kts | 309° |
| 2026-04-21 07:24 | 53.62831 | 10.00010 | 50 ft | 7 kts | 270° |
| 2026-04-21 07:25 | 53.62830 | 9.99973 | 54 ft | 0 kts | 262° |
| 2026-04-21 07:25 | 53.62828 | 9.99960 | 55 ft | 4 kts | 261° |
| 2026-04-21 07:25 | 53.62817 | 9.99895 | 50 ft | 8 kts | 250° |
| 2026-04-21 07:26 | 53.62826 | 9.99799 | 48 ft | 10 kts | 308° |
| 2026-04-21 07:26 | 53.62890 | 9.99721 | 48 ft | 11 kts | 330° |
| 2026-04-21 07:26 | 53.62898 | 9.99712 | 49 ft | 3 kts | 331° |
| 2026-04-21 07:26 | 53.62995 | 9.99628 | 51 ft | 40 kts | 333° |
| 2026-04-21 07:27 | 53.63479 | 9.99210 | 53 ft | 115 kts | 333° |
| 2026-04-21 07:27 | 53.64396 | 9.98403 | 107 ft | 179 kts | 335° |
| 2026-04-21 07:27 | 53.65575 | 9.97328 | 687 ft | 207 kts | 336° |
| 2026-04-21 07:27 | 53.66868 | 9.96183 | 1654 ft | 207 kts | 337° |
| 2026-04-21 07:28 | 53.68108 | 9.95103 | 2634 ft | 188 kts | 339° |
| 2026-04-21 07:28 | 53.69200 | 9.94194 | 2993 ft | 171 kts | 346° |
| 2026-04-21 07:28 | 53.70358 | 9.93812 | 3305 ft | 166 kts | 4° |